WEATHER/FLIGHT PLANNING

Hattiesburg Radar

 

 

 

 

Weather Links

Flight Planning Links

 

METAR

2021/01/19 19:53 KHBG 191953Z AUTO 18009KT 10SM SCT075 23/07 A3028 RMK AO2 SLP252 T02280067

TAF

2021/01/19 18:40 TAF KHBG 191738Z 1918/2018 18005KT P6SM SCT060 FM201100 36004KT P6SM SCT015 BKN025 FM201600 VRB04KT P6SM BKN035